sensor_id;sensor_type;location;lat;lon;timestamp;P1;durP1;ratioP1;P2;durP2;ratioP2
3259;SDS011;68938;48.150;14.004;2024-01-15T00:02:20;65.20;;;27.70;;
3259;SDS011;68938;48.150;14.004;2024-01-15T00:04:47;57.77;;;26.20;;
3259;SDS011;68938;48.150;14.004;2024-01-15T00:07:14;53.20;;;25.80;;
3259;SDS011;68938;48.150;14.004;2024-01-15T00:09:41;53.20;;;24.53;;
3259;SDS011;68938;48.150;14.004;2024-01-15T00:12:09;60.50;;;26.67;;
3259;SDS011;68938;48.150;14.004;2024-01-15T00:14:36;58.60;;;28.07;;
3259;SDS011;68938;48.150;14.004;2024-01-15T00:17:03;58.00;;;24.77;;
3259;SDS011;68938;48.150;14.004;2024-01-15T00:19:30;59.50;;;28.13;;
3259;SDS011;68938;48.150;14.004;2024-01-15T00:21:57;62.80;;;27.57;;
3259;SDS011;68938;48.150;14.004;2024-01-15T00:24:24;56.47;;;24.77;;
3259;SDS011;68938;48.150;14.004;2024-01-15T00:26:51;71.33;;;29.13;;
3259;SDS011;68938;48.150;14.004;2024-01-15T00:29:18;68.67;;;27.70;;
3259;SDS011;68938;48.150;14.004;2024-01-15T00:31:45;62.30;;;27.17;;
3259;SDS011;68938;48.150;14.004;2024-01-15T00:34:12;70.00;;;26.67;;
3259;SDS011;68938;48.150;14.004;2024-01-15T00:36:39;69.17;;;27.40;;
3259;SDS011;68938;48.150;14.004;2024-01-15T00:39:06;59.30;;;26.80;;
3259;SDS011;68938;48.150;14.004;2024-01-15T00:41:33;70.43;;;27.97;;
3259;SDS011;68938;48.150;14.004;2024-01-15T00:44:00;62.67;;;28.27;;
3259;SDS011;68938;48.150;14.004;2024-01-15T00:46:27;54.07;;;27.00;;
3259;SDS011;68938;48.150;14.004;2024-01-15T00:48:55;59.73;;;28.03;;
3259;SDS011;68938;48.150;14.004;2024-01-15T00:51:22;63.47;;;28.40;;
3259;SDS011;68938;48.150;14.004;2024-01-15T00:53:49;64.53;;;29.40;;
3259;SDS011;68938;48.150;14.004;2024-01-15T00:56:16;69.57;;;28.97;;
3259;SDS011;68938;48.150;14.004;2024-01-15T00:58:43;56.97;;;27.30;;
3259;SDS011;68938;48.150;14.004;2024-01-15T01:01:10;61.20;;;26.47;;
3259;SDS011;68938;48.150;14.004;2024-01-15T01:03:37;69.57;;;25.60;;
3259;SDS011;68938;48.150;14.004;2024-01-15T01:06:04;58.87;;;28.83;;
3259;SDS011;68938;48.150;14.004;2024-01-15T01:08:31;59.80;;;25.20;;
3259;SDS011;68938;48.150;14.004;2024-01-15T01:10:58;70.80;;;31.10;;
3259;SDS011;68938;48.150;14.004;2024-01-15T01:13:25;70.17;;;27.90;;
3259;SDS011;68938;48.150;14.004;2024-01-15T01:15:52;60.30;;;26.23;;
3259;SDS011;68938;48.150;14.004;2024-01-15T01:18:19;76.93;;;28.70;;
3259;SDS011;68938;48.150;14.004;2024-01-15T01:20:46;60.93;;;26.47;;
3259;SDS011;68938;48.150;14.004;2024-01-15T01:23:13;59.73;;;25.87;;
3259;SDS011;68938;48.150;14.004;2024-01-15T01:25:40;57.90;;;28.00;;
3259;SDS011;68938;48.150;14.004;2024-01-15T01:28:07;70.00;;;29.60;;
3259;SDS011;68938;48.150;14.004;2024-01-15T01:30:34;66.23;;;28.10;;
3259;SDS011;68938;48.150;14.004;2024-01-15T01:33:01;64.17;;;28.50;;
3259;SDS011;68938;48.150;14.004;2024-01-15T01:35:28;56.77;;;26.57;;
3259;SDS011;68938;48.150;14.004;2024-01-15T01:37:54;55.37;;;24.37;;
3259;SDS011;68938;48.150;14.004;2024-01-15T01:40:21;69.00;;;29.27;;
3259;SDS011;68938;48.150;14.004;2024-01-15T01:42:48;66.07;;;26.40;;
3259;SDS011;68938;48.150;14.004;2024-01-15T01:45:15;69.27;;;27.67;;
3259;SDS011;68938;48.150;14.004;2024-01-15T01:47:42;59.63;;;28.97;;
3259;SDS011;68938;48.150;14.004;2024-01-15T01:50:09;58.77;;;25.77;;
3259;SDS011;68938;48.150;14.004;2024-01-15T01:52:37;60.93;;;28.90;;
3259;SDS011;68938;48.150;14.004;2024-01-15T01:55:05;62.07;;;26.73;;
3259;SDS011;68938;48.150;14.004;2024-01-15T01:57:33;56.97;;;25.40;;
3259;SDS011;68938;48.150;14.004;2024-01-15T02:00:02;62.73;;;27.83;;
3259;SDS011;68938;48.150;14.004;2024-01-15T02:02:30;56.60;;;22.97;;
3259;SDS011;68938;48.150;14.004;2024-01-15T02:04:58;52.63;;;25.37;;
3259;SDS011;68938;48.150;14.004;2024-01-15T02:07:25;60.50;;;28.57;;
3259;SDS011;68938;48.150;14.004;2024-01-15T02:09:52;63.67;;;27.03;;
3259;SDS011;68938;48.150;14.004;2024-01-15T02:12:19;61.33;;;27.47;;
3259;SDS011;68938;48.150;14.004;2024-01-15T02:14:46;61.77;;;26.60;;
3259;SDS011;68938;48.150;14.004;2024-01-15T02:17:13;68.30;;;25.70;;
3259;SDS011;68938;48.150;14.004;2024-01-15T02:19:40;53.17;;;25.50;;
3259;SDS011;68938;48.150;14.004;2024-01-15T02:22:07;55.53;;;24.60;;
3259;SDS011;68938;48.150;14.004;2024-01-15T02:24:34;54.87;;;25.70;;
3259;SDS011;68938;48.150;14.004;2024-01-15T02:27:01;50.53;;;21.50;;
3259;SDS011;68938;48.150;14.004;2024-01-15T02:29:29;49.93;;;23.17;;
3259;SDS011;68938;48.150;14.004;2024-01-15T02:31:56;61.40;;;24.47;;
3259;SDS011;68938;48.150;14.004;2024-01-15T02:34:23;46.60;;;21.73;;
3259;SDS011;68938;48.150;14.004;2024-01-15T02:36:50;42.07;;;18.70;;
3259;SDS011;68938;48.150;14.004;2024-01-15T02:39:17;37.53;;;20.50;;
3259;SDS011;68938;48.150;14.004;2024-01-15T02:41:44;33.33;;;19.87;;
3259;SDS011;68938;48.150;14.004;2024-01-15T02:44:11;32.60;;;16.77;;
3259;SDS011;68938;48.150;14.004;2024-01-15T02:46:38;30.20;;;16.93;;
3259;SDS011;68938;48.150;14.004;2024-01-15T02:49:05;32.73;;;17.87;;
3259;SDS011;68938;48.150;14.004;2024-01-15T02:51:32;32.27;;;17.60;;
3259;SDS011;68938;48.150;14.004;2024-01-15T02:53:59;23.70;;;15.03;;
3259;SDS011;68938;48.150;14.004;2024-01-15T02:56:26;28.17;;;16.10;;
3259;SDS011;68938;48.150;14.004;2024-01-15T02:58:53;31.40;;;17.40;;
3259;SDS011;68938;48.150;14.004;2024-01-15T03:01:19;28.83;;;15.07;;
3259;SDS011;68938;48.150;14.004;2024-01-15T03:03:47;33.00;;;15.57;;
3259;SDS011;68938;48.150;14.004;2024-01-15T03:06:14;13.00;;;9.57;;
3259;SDS011;68938;48.150;14.004;2024-01-15T03:08:41;13.77;;;9.67;;
3259;SDS011;68938;48.150;14.004;2024-01-15T03:11:07;16.60;;;10.80;;
3259;SDS011;68938;48.150;14.004;2024-01-15T03:13:35;15.00;;;10.90;;
3259;SDS011;68938;48.150;14.004;2024-01-15T03:16:04;12.43;;;8.23;;
3259;SDS011;68938;48.150;14.004;2024-01-15T03:18:32;11.20;;;8.77;;
3259;SDS011;68938;48.150;14.004;2024-01-15T03:20:59;14.30;;;10.70;;
3259;SDS011;68938;48.150;14.004;2024-01-15T03:23:26;10.50;;;8.10;;
3259;SDS011;68938;48.150;14.004;2024-01-15T03:25:53;13.57;;;8.33;;
3259;SDS011;68938;48.150;14.004;2024-01-15T03:28:20;13.40;;;9.40;;
3259;SDS011;68938;48.150;14.004;2024-01-15T03:30:47;11.00;;;8.40;;
3259;SDS011;68938;48.150;14.004;2024-01-15T03:33:14;12.10;;;9.40;;
3259;SDS011;68938;48.150;14.004;2024-01-15T03:35:42;15.90;;;12.33;;
3259;SDS011;68938;48.150;14.004;2024-01-15T03:38:08;11.13;;;8.53;;
3259;SDS011;68938;48.150;14.004;2024-01-15T03:40:35;13.63;;;10.27;;
3259;SDS011;68938;48.150;14.004;2024-01-15T03:43:02;17.57;;;10.33;;
3259;SDS011;68938;48.150;14.004;2024-01-15T03:45:30;8.37;;;7.03;;
3259;SDS011;68938;48.150;14.004;2024-01-15T03:47:56;13.40;;;9.13;;
3259;SDS011;68938;48.150;14.004;2024-01-15T03:50:24;17.57;;;11.70;;
3259;SDS011;68938;48.150;14.004;2024-01-15T03:52:50;14.63;;;10.60;;
3259;SDS011;68938;48.150;14.004;2024-01-15T03:55:17;13.67;;;10.17;;
3259;SDS011;68938;48.150;14.004;2024-01-15T03:57:44;12.57;;;7.47;;
3259;SDS011;68938;48.150;14.004;2024-01-15T04:00:12;17.43;;;11.07;;
3259;SDS011;68938;48.150;14.004;2024-01-15T04:02:41;12.90;;;9.80;;
3259;SDS011;68938;48.150;14.004;2024-01-15T04:05:08;13.50;;;10.30;;
3259;SDS011;68938;48.150;14.004;2024-01-15T04:07:34;9.57;;;8.53;;
3259;SDS011;68938;48.150;14.004;2024-01-15T04:10:01;13.67;;;9.53;;
3259;SDS011;68938;48.150;14.004;2024-01-15T04:12:28;12.13;;;10.13;;
3259;SDS011;68938;48.150;14.004;2024-01-15T04:14:57;17.63;;;10.87;;
3259;SDS011;68938;48.150;14.004;2024-01-15T04:17:24;13.57;;;9.60;;
3259;SDS011;68938;48.150;14.004;2024-01-15T04:19:51;13.27;;;9.87;;
3259;SDS011;68938;48.150;14.004;2024-01-15T04:22:18;15.27;;;10.73;;
3259;SDS011;68938;48.150;14.004;2024-01-15T04:24:45;12.77;;;8.83;;
3259;SDS011;68938;48.150;14.004;2024-01-15T04:27:12;15.87;;;10.40;;
3259;SDS011;68938;48.150;14.004;2024-01-15T04:29:39;16.43;;;9.00;;
3259;SDS011;68938;48.150;14.004;2024-01-15T04:32:07;15.97;;;9.60;;
3259;SDS011;68938;48.150;14.004;2024-01-15T04:34:34;11.53;;;8.50;;
3259;SDS011;68938;48.150;14.004;2024-01-15T04:37:01;14.97;;;10.83;;
3259;SDS011;68938;48.150;14.004;2024-01-15T04:39:28;12.50;;;9.13;;
3259;SDS011;68938;48.150;14.004;2024-01-15T04:41:56;14.03;;;10.47;;
3259;SDS011;68938;48.150;14.004;2024-01-15T04:44:23;16.97;;;9.60;;
3259;SDS011;68938;48.150;14.004;2024-01-15T04:46:50;15.33;;;10.50;;
3259;SDS011;68938;48.150;14.004;2024-01-15T04:49:17;14.43;;;9.20;;
3259;SDS011;68938;48.150;14.004;2024-01-15T04:51:44;12.63;;;9.40;;
3259;SDS011;68938;48.150;14.004;2024-01-15T04:54:11;9.83;;;6.83;;
3259;SDS011;68938;48.150;14.004;2024-01-15T04:56:38;19.63;;;11.63;;
3259;SDS011;68938;48.150;14.004;2024-01-15T04:59:05;13.73;;;9.73;;
3259;SDS011;68938;48.150;14.004;2024-01-15T05:01:32;15.23;;;9.37;;
3259;SDS011;68938;48.150;14.004;2024-01-15T05:03:59;15.33;;;9.23;;
3259;SDS011;68938;48.150;14.004;2024-01-15T05:06:27;16.67;;;9.90;;
3259;SDS011;68938;48.150;14.004;2024-01-15T05:08:54;14.23;;;10.07;;
3259;SDS011;68938;48.150;14.004;2024-01-15T05:11:21;20.57;;;10.23;;
3259;SDS011;68938;48.150;14.004;2024-01-15T05:13:48;14.20;;;9.60;;
3259;SDS011;68938;48.150;14.004;2024-01-15T05:16:15;17.10;;;9.67;;
3259;SDS011;68938;48.150;14.004;2024-01-15T05:18:42;8.30;;;6.60;;
3259;SDS011;68938;48.150;14.004;2024-01-15T05:21:09;12.80;;;10.17;;
3259;SDS011;68938;48.150;14.004;2024-01-15T05:23:36;14.13;;;8.80;;
3259;SDS011;68938;48.150;14.004;2024-01-15T05:26:03;12.90;;;8.60;;
3259;SDS011;68938;48.150;14.004;2024-01-15T05:28:30;13.63;;;9.33;;
3259;SDS011;68938;48.150;14.004;2024-01-15T05:30:57;13.97;;;9.60;;
3259;SDS011;68938;48.150;14.004;2024-01-15T05:33:24;10.93;;;8.40;;
3259;SDS011;68938;48.150;14.004;2024-01-15T05:35:51;11.37;;;8.93;;
3259;SDS011;68938;48.150;14.004;2024-01-15T05:38:18;11.27;;;8.23;;
3259;SDS011;68938;48.150;14.004;2024-01-15T05:40:45;11.27;;;8.53;;
3259;SDS011;68938;48.150;14.004;2024-01-15T05:43:12;13.67;;;9.73;;
3259;SDS011;68938;48.150;14.004;2024-01-15T05:45:42;14.67;;;9.30;;
3259;SDS011;68938;48.150;14.004;2024-01-15T05:48:10;14.27;;;10.20;;
3259;SDS011;68938;48.150;14.004;2024-01-15T05:50:38;13.30;;;9.47;;
3259;SDS011;68938;48.150;14.004;2024-01-15T05:53:05;20.03;;;10.13;;
3259;SDS011;68938;48.150;14.004;2024-01-15T05:55:31;15.07;;;9.83;;
3259;SDS011;68938;48.150;14.004;2024-01-15T05:57:58;14.03;;;9.47;;
3259;SDS011;68938;48.150;14.004;2024-01-15T06:00:25;11.47;;;8.00;;
3259;SDS011;68938;48.150;14.004;2024-01-15T06:02:52;12.10;;;7.50;;
3259;SDS011;68938;48.150;14.004;2024-01-15T06:05:19;11.10;;;7.57;;
3259;SDS011;68938;48.150;14.004;2024-01-15T06:07:46;9.63;;;6.80;;
3259;SDS011;68938;48.150;14.004;2024-01-15T06:10:13;12.00;;;8.90;;
3259;SDS011;68938;48.150;14.004;2024-01-15T06:12:40;7.90;;;5.90;;
3259;SDS011;68938;48.150;14.004;2024-01-15T06:15:10;10.90;;;7.17;;
3259;SDS011;68938;48.150;14.004;2024-01-15T06:17:36;7.63;;;5.67;;
3259;SDS011;68938;48.150;14.004;2024-01-15T06:20:04;9.10;;;5.73;;
3259;SDS011;68938;48.150;14.004;2024-01-15T06:22:32;7.17;;;5.83;;
3259;SDS011;68938;48.150;14.004;2024-01-15T06:24:59;7.00;;;6.30;;
3259;SDS011;68938;48.150;14.004;2024-01-15T06:27:26;8.57;;;6.50;;
3259;SDS011;68938;48.150;14.004;2024-01-15T06:29:53;7.43;;;4.80;;
3259;SDS011;68938;48.150;14.004;2024-01-15T06:32:20;9.17;;;5.83;;
3259;SDS011;68938;48.150;14.004;2024-01-15T06:34:47;4.70;;;4.17;;
3259;SDS011;68938;48.150;14.004;2024-01-15T06:37:14;8.03;;;6.13;;
3259;SDS011;68938;48.150;14.004;2024-01-15T06:39:40;8.03;;;5.97;;
3259;SDS011;68938;48.150;14.004;2024-01-15T06:42:07;5.73;;;5.20;;
3259;SDS011;68938;48.150;14.004;2024-01-15T06:44:34;8.37;;;6.57;;
3259;SDS011;68938;48.150;14.004;2024-01-15T06:47:01;8.57;;;6.60;;
3259;SDS011;68938;48.150;14.004;2024-01-15T06:49:29;7.30;;;5.03;;
3259;SDS011;68938;48.150;14.004;2024-01-15T06:51:56;3.57;;;3.27;;
3259;SDS011;68938;48.150;14.004;2024-01-15T06:54:23;7.97;;;5.87;;
3259;SDS011;68938;48.150;14.004;2024-01-15T06:56:50;8.27;;;5.83;;
3259;SDS011;68938;48.150;14.004;2024-01-15T06:59:17;10.27;;;7.20;;
3259;SDS011;68938;48.150;14.004;2024-01-15T07:01:45;10.10;;;6.87;;
3259;SDS011;68938;48.150;14.004;2024-01-15T07:04:13;7.63;;;6.37;;
3259;SDS011;68938;48.150;14.004;2024-01-15T07:06:40;8.70;;;5.63;;
3259;SDS011;68938;48.150;14.004;2024-01-15T07:09:07;7.63;;;6.23;;
3259;SDS011;68938;48.150;14.004;2024-01-15T07:11:34;9.23;;;7.00;;
3259;SDS011;68938;48.150;14.004;2024-01-15T07:14:01;10.80;;;7.13;;
3259;SDS011;68938;48.150;14.004;2024-01-15T07:16:28;13.10;;;7.67;;
3259;SDS011;68938;48.150;14.004;2024-01-15T07:19:03;9.50;;;5.27;;
3259;SDS011;68938;48.150;14.004;2024-01-15T07:21:31;7.40;;;5.60;;
3259;SDS011;68938;48.150;14.004;2024-01-15T07:23:58;10.10;;;7.67;;
3259;SDS011;68938;48.150;14.004;2024-01-15T07:26:25;10.20;;;7.00;;
3259;SDS011;68938;48.150;14.004;2024-01-15T07:28:52;6.73;;;5.77;;
3259;SDS011;68938;48.150;14.004;2024-01-15T07:31:19;9.00;;;7.60;;
3259;SDS011;68938;48.150;14.004;2024-01-15T07:33:46;7.90;;;5.80;;
3259;SDS011;68938;48.150;14.004;2024-01-15T07:36:14;11.50;;;7.10;;
3259;SDS011;68938;48.150;14.004;2024-01-15T07:38:41;8.17;;;6.90;;
3259;SDS011;68938;48.150;14.004;2024-01-15T07:41:08;6.63;;;6.00;;
3259;SDS011;68938;48.150;14.004;2024-01-15T07:43:35;9.50;;;6.70;;
3259;SDS011;68938;48.150;14.004;2024-01-15T07:46:02;7.80;;;6.87;;
3259;SDS011;68938;48.150;14.004;2024-01-15T07:48:29;10.60;;;6.57;;
3259;SDS011;68938;48.150;14.004;2024-01-15T07:50:56;7.30;;;6.40;;
3259;SDS011;68938;48.150;14.004;2024-01-15T07:53:23;12.47;;;6.50;;
3259;SDS011;68938;48.150;14.004;2024-01-15T07:55:50;8.47;;;6.73;;
3259;SDS011;68938;48.150;14.004;2024-01-15T07:58:17;9.57;;;6.90;;
3259;SDS011;68938;48.150;14.004;2024-01-15T08:00:44;9.10;;;5.90;;
3259;SDS011;68938;48.150;14.004;2024-01-15T08:03:12;7.43;;;6.67;;
3259;SDS011;68938;48.150;14.004;2024-01-15T08:05:39;8.23;;;6.77;;
3259;SDS011;68938;48.150;14.004;2024-01-15T08:08:06;9.63;;;6.23;;
3259;SDS011;68938;48.150;14.004;2024-01-15T08:10:33;14.13;;;6.23;;
3259;SDS011;68938;48.150;14.004;2024-01-15T08:13:00;11.10;;;7.00;;
3259;SDS011;68938;48.150;14.004;2024-01-15T08:15:27;8.97;;;7.50;;
3259;SDS011;68938;48.150;14.004;2024-01-15T08:17:57;11.23;;;8.10;;
3259;SDS011;68938;48.150;14.004;2024-01-15T08:20:24;10.00;;;6.90;;
3259;SDS011;68938;48.150;14.004;2024-01-15T08:22:51;10.30;;;6.90;;
3259;SDS011;68938;48.150;14.004;2024-01-15T08:25:18;10.93;;;7.43;;
3259;SDS011;68938;48.150;14.004;2024-01-15T08:27:45;10.80;;;7.27;;
3259;SDS011;68938;48.150;14.004;2024-01-15T08:30:12;9.90;;;7.63;;
3259;SDS011;68938;48.150;14.004;2024-01-15T08:32:40;9.97;;;8.10;;
3259;SDS011;68938;48.150;14.004;2024-01-15T08:35:07;8.30;;;6.37;;
3259;SDS011;68938;48.150;14.004;2024-01-15T08:37:35;10.47;;;8.13;;
3259;SDS011;68938;48.150;14.004;2024-01-15T08:40:02;7.70;;;7.00;;
3259;SDS011;68938;48.150;14.004;2024-01-15T08:42:30;8.10;;;7.20;;
3259;SDS011;68938;48.150;14.004;2024-01-15T08:44:56;7.83;;;6.70;;
3259;SDS011;68938;48.150;14.004;2024-01-15T08:47:23;12.73;;;7.60;;
3259;SDS011;68938;48.150;14.004;2024-01-15T08:49:50;8.90;;;7.57;;
3259;SDS011;68938;48.150;14.004;2024-01-15T08:52:17;8.70;;;6.87;;
3259;SDS011;68938;48.150;14.004;2024-01-15T08:54:44;11.80;;;7.60;;
3259;SDS011;68938;48.150;14.004;2024-01-15T08:57:11;10.27;;;7.00;;
3259;SDS011;68938;48.150;14.004;2024-01-15T08:59:38;9.87;;;6.20;;
3259;SDS011;68938;48.150;14.004;2024-01-15T09:02:05;6.90;;;6.20;;
3259;SDS011;68938;48.150;14.004;2024-01-15T09:04:32;8.10;;;7.00;;
3259;SDS011;68938;48.150;14.004;2024-01-15T09:06:59;6.07;;;4.57;;
3259;SDS011;68938;48.150;14.004;2024-01-15T09:09:26;7.57;;;5.47;;
3259;SDS011;68938;48.150;14.004;2024-01-15T09:11:53;8.20;;;7.40;;
3259;SDS011;68938;48.150;14.004;2024-01-15T09:14:20;8.97;;;6.57;;
3259;SDS011;68938;48.150;14.004;2024-01-15T09:17:01;6.53;;;5.43;;
3259;SDS011;68938;48.150;14.004;2024-01-15T09:19:29;8.70;;;6.57;;
3259;SDS011;68938;48.150;14.004;2024-01-15T09:21:56;5.70;;;4.90;;
3259;SDS011;68938;48.150;14.004;2024-01-15T09:24:23;10.10;;;6.80;;
3259;SDS011;68938;48.150;14.004;2024-01-15T09:26:54;7.40;;;6.30;;
3259;SDS011;68938;48.150;14.004;2024-01-15T09:29:21;7.53;;;6.83;;
3259;SDS011;68938;48.150;14.004;2024-01-15T09:31:48;7.30;;;6.13;;
3259;SDS011;68938;48.150;14.004;2024-01-15T09:34:15;8.57;;;6.93;;
3259;SDS011;68938;48.150;14.004;2024-01-15T09:36:44;8.80;;;7.37;;
3259;SDS011;68938;48.150;14.004;2024-01-15T09:39:11;8.83;;;5.60;;
3259;SDS011;68938;48.150;14.004;2024-01-15T09:41:38;8.13;;;4.90;;
3259;SDS011;68938;48.150;14.004;2024-01-15T09:44:05;7.77;;;6.53;;
3259;SDS011;68938;48.150;14.004;2024-01-15T09:46:32;7.40;;;6.37;;
3259;SDS011;68938;48.150;14.004;2024-01-15T09:49:01;8.37;;;6.40;;
3259;SDS011;68938;48.150;14.004;2024-01-15T09:51:32;7.97;;;7.20;;
3259;SDS011;68938;48.150;14.004;2024-01-15T09:53:59;8.20;;;7.40;;
3259;SDS011;68938;48.150;14.004;2024-01-15T09:56:26;11.17;;;7.63;;
3259;SDS011;68938;48.150;14.004;2024-01-15T09:58:53;8.23;;;5.83;;
3259;SDS011;68938;48.150;14.004;2024-01-15T10:01:21;7.70;;;6.97;;
3259;SDS011;68938;48.150;14.004;2024-01-15T10:03:49;9.00;;;7.33;;
3259;SDS011;68938;48.150;14.004;2024-01-15T10:06:17;6.50;;;5.90;;
3259;SDS011;68938;48.150;14.004;2024-01-15T10:08:51;12.07;;;8.30;;
3259;SDS011;68938;48.150;14.004;2024-01-15T10:11:18;9.97;;;7.33;;
3259;SDS011;68938;48.150;14.004;2024-01-15T10:13:46;5.00;;;4.50;;
3259;SDS011;68938;48.150;14.004;2024-01-15T10:16:16;7.20;;;6.27;;
3259;SDS011;68938;48.150;14.004;2024-01-15T10:18:43;8.13;;;7.33;;
3259;SDS011;68938;48.150;14.004;2024-01-15T10:21:10;8.80;;;7.57;;
3259;SDS011;68938;48.150;14.004;2024-01-15T10:23:38;9.47;;;6.07;;
3259;SDS011;68938;48.150;14.004;2024-01-15T10:26:04;11.00;;;9.67;;
3259;SDS011;68938;48.150;14.004;2024-01-15T10:28:31;8.87;;;7.20;;
3259;SDS011;68938;48.150;14.004;2024-01-15T10:30:59;9.83;;;7.00;;
3259;SDS011;68938;48.150;14.004;2024-01-15T10:33:27;7.43;;;6.67;;
3259;SDS011;68938;48.150;14.004;2024-01-15T10:35:58;9.90;;;7.43;;
3259;SDS011;68938;48.150;14.004;2024-01-15T10:38:27;8.70;;;6.87;;
3259;SDS011;68938;48.150;14.004;2024-01-15T10:40:54;11.00;;;8.07;;
3259;SDS011;68938;48.150;14.004;2024-01-15T10:43:22;6.43;;;5.30;;
3259;SDS011;68938;48.150;14.004;2024-01-15T10:45:54;7.60;;;6.90;;
3259;SDS011;68938;48.150;14.004;2024-01-15T10:48:21;6.80;;;6.10;;
3259;SDS011;68938;48.150;14.004;2024-01-15T10:50:49;6.93;;;6.07;;
3259;SDS011;68938;48.150;14.004;2024-01-15T10:53:16;5.97;;;5.33;;
3259;SDS011;68938;48.150;14.004;2024-01-15T10:55:44;7.40;;;6.17;;
3259;SDS011;68938;48.150;14.004;2024-01-15T10:58:14;6.60;;;6.03;;
3259;SDS011;68938;48.150;14.004;2024-01-15T11:00:42;8.37;;;6.53;;
3259;SDS011;68938;48.150;14.004;2024-01-15T11:03:10;7.63;;;6.93;;
3259;SDS011;68938;48.150;14.004;2024-01-15T11:05:38;6.20;;;5.70;;
3259;SDS011;68938;48.150;14.004;2024-01-15T11:08:09;5.53;;;4.83;;
3259;SDS011;68938;48.150;14.004;2024-01-15T11:10:46;4.50;;;3.90;;
3259;SDS011;68938;48.150;14.004;2024-01-15T11:13:15;5.87;;;5.37;;
3259;SDS011;68938;48.150;14.004;2024-01-15T11:16:06;7.80;;;5.20;;
3259;SDS011;68938;48.150;14.004;2024-01-15T11:23:45;7.80;;;5.07;;
3259;SDS011;68938;48.150;14.004;2024-01-15T11:31:57;4.53;;;4.13;;
3259;SDS011;68938;48.150;14.004;2024-01-15T11:37:26;4.97;;;4.67;;
3259;SDS011;68938;48.150;14.004;2024-01-15T11:40:14;4.57;;;4.20;;
3259;SDS011;68938;48.150;14.004;2024-01-15T11:42:45;3.40;;;3.10;;
3259;SDS011;68938;48.150;14.004;2024-01-15T11:45:15;6.10;;;5.20;;
3259;SDS011;68938;48.150;14.004;2024-01-15T11:50:36;4.83;;;4.43;;
3259;SDS011;68938;48.150;14.004;2024-01-15T11:55:48;4.70;;;4.30;;
3259;SDS011;68938;48.150;14.004;2024-01-15T11:58:18;3.90;;;3.60;;
3259;SDS011;68938;48.150;14.004;2024-01-15T12:00:45;4.03;;;3.70;;
3259;SDS011;68938;48.150;14.004;2024-01-15T12:03:15;4.97;;;4.43;;
3259;SDS011;68938;48.150;14.004;2024-01-15T12:05:42;7.80;;;3.73;;
3259;SDS011;68938;48.150;14.004;2024-01-15T12:08:09;4.37;;;3.97;;
3259;SDS011;68938;48.150;14.004;2024-01-15T12:10:37;11.17;;;4.20;;
3259;SDS011;68938;48.150;14.004;2024-01-15T12:13:05;3.27;;;3.00;;
3259;SDS011;68938;48.150;14.004;2024-01-15T12:15:38;3.97;;;3.70;;
3259;SDS011;68938;48.150;14.004;2024-01-15T12:18:07;5.03;;;4.63;;
3259;SDS011;68938;48.150;14.004;2024-01-15T12:20:36;4.40;;;4.00;;
3259;SDS011;68938;48.150;14.004;2024-01-15T12:23:03;4.70;;;4.20;;
3259;SDS011;68938;48.150;14.004;2024-01-15T12:25:34;6.03;;;4.73;;
3259;SDS011;68938;48.150;14.004;2024-01-15T12:28:01;4.70;;;3.77;;
3259;SDS011;68938;48.150;14.004;2024-01-15T12:30:29;5.67;;;4.13;;
3259;SDS011;68938;48.150;14.004;2024-01-15T12:32:57;4.10;;;3.80;;
3259;SDS011;68938;48.150;14.004;2024-01-15T12:35:25;3.90;;;3.50;;
3259;SDS011;68938;48.150;14.004;2024-01-15T12:37:53;3.77;;;3.47;;
3259;SDS011;68938;48.150;14.004;2024-01-15T12:40:21;3.20;;;3.00;;
3259;SDS011;68938;48.150;14.004;2024-01-15T12:42:49;2.90;;;2.70;;
3259;SDS011;68938;48.150;14.004;2024-01-15T12:45:16;3.90;;;3.50;;
3259;SDS011;68938;48.150;14.004;2024-01-15T12:47:45;3.50;;;3.30;;
3259;SDS011;68938;48.150;14.004;2024-01-15T12:50:12;3.77;;;3.47;;
3259;SDS011;68938;48.150;14.004;2024-01-15T12:52:46;4.40;;;4.00;;
3259;SDS011;68938;48.150;14.004;2024-01-15T12:55:13;3.10;;;2.87;;
3259;SDS011;68938;48.150;14.004;2024-01-15T12:57:41;3.77;;;3.50;;
3259;SDS011;68938;48.150;14.004;2024-01-15T13:00:09;4.97;;;3.60;;
3259;SDS011;68938;48.150;14.004;2024-01-15T13:02:36;3.63;;;3.33;;
3259;SDS011;68938;48.150;14.004;2024-01-15T13:05:04;3.33;;;3.13;;
3259;SDS011;68938;48.150;14.004;2024-01-15T13:07:31;3.70;;;3.50;;
3259;SDS011;68938;48.150;14.004;2024-01-15T13:09:58;2.60;;;2.43;;
3259;SDS011;68938;48.150;14.004;2024-01-15T13:12:25;2.63;;;2.43;;
3259;SDS011;68938;48.150;14.004;2024-01-15T13:14:52;3.70;;;3.47;;
3259;SDS011;68938;48.150;14.004;2024-01-15T13:17:19;3.23;;;3.03;;
3259;SDS011;68938;48.150;14.004;2024-01-15T13:19:46;3.50;;;3.10;;
3259;SDS011;68938;48.150;14.004;2024-01-15T13:22:13;3.83;;;3.60;;
3259;SDS011;68938;48.150;14.004;2024-01-15T13:24:40;2.87;;;2.60;;
3259;SDS011;68938;48.150;14.004;2024-01-15T13:27:08;3.80;;;3.50;;
3259;SDS011;68938;48.150;14.004;2024-01-15T13:29:35;3.73;;;3.43;;
3259;SDS011;68938;48.150;14.004;2024-01-15T13:32:02;2.30;;;2.10;;
3259;SDS011;68938;48.150;14.004;2024-01-15T13:34:29;3.07;;;2.77;;
3259;SDS011;68938;48.150;14.004;2024-01-15T13:36:57;2.90;;;2.70;;
3259;SDS011;68938;48.150;14.004;2024-01-15T13:39:24;4.10;;;3.80;;
3259;SDS011;68938;48.150;14.004;2024-01-15T13:41:51;4.00;;;3.00;;
3259;SDS011;68938;48.150;14.004;2024-01-15T13:44:18;3.03;;;2.80;;
3259;SDS011;68938;48.150;14.004;2024-01-15T13:46:45;2.83;;;2.73;;
3259;SDS011;68938;48.150;14.004;2024-01-15T13:49:12;3.30;;;3.10;;
3259;SDS011;68938;48.150;14.004;2024-01-15T13:51:39;4.10;;;3.73;;
3259;SDS011;68938;48.150;14.004;2024-01-15T13:54:06;3.80;;;3.50;;
3259;SDS011;68938;48.150;14.004;2024-01-15T13:56:33;3.43;;;3.13;;
3259;SDS011;68938;48.150;14.004;2024-01-15T13:59:00;4.53;;;4.23;;
3259;SDS011;68938;48.150;14.004;2024-01-15T14:01:26;3.77;;;3.40;;
3259;SDS011;68938;48.150;14.004;2024-01-15T14:03:54;5.50;;;4.53;;
3259;SDS011;68938;48.150;14.004;2024-01-15T14:06:21;5.80;;;3.87;;
3259;SDS011;68938;48.150;14.004;2024-01-15T14:08:48;4.13;;;3.83;;
3259;SDS011;68938;48.150;14.004;2024-01-15T14:11:15;3.13;;;2.93;;
3259;SDS011;68938;48.150;14.004;2024-01-15T14:13:42;4.53;;;3.83;;
3259;SDS011;68938;48.150;14.004;2024-01-15T14:16:09;3.83;;;3.20;;
3259;SDS011;68938;48.150;14.004;2024-01-15T14:18:36;4.67;;;4.27;;
3259;SDS011;68938;48.150;14.004;2024-01-15T14:21:03;2.67;;;2.47;;
3259;SDS011;68938;48.150;14.004;2024-01-15T14:23:31;3.00;;;2.80;;
3259;SDS011;68938;48.150;14.004;2024-01-15T14:25:57;3.87;;;3.57;;
3259;SDS011;68938;48.150;14.004;2024-01-15T14:28:24;3.67;;;3.37;;
3259;SDS011;68938;48.150;14.004;2024-01-15T14:30:51;3.77;;;3.50;;
3259;SDS011;68938;48.150;14.004;2024-01-15T14:33:18;3.43;;;3.23;;
3259;SDS011;68938;48.150;14.004;2024-01-15T14:35:46;3.90;;;3.50;;
3259;SDS011;68938;48.150;14.004;2024-01-15T14:38:12;3.90;;;3.50;;
3259;SDS011;68938;48.150;14.004;2024-01-15T14:40:39;4.87;;;3.80;;
3259;SDS011;68938;48.150;14.004;2024-01-15T14:43:06;5.70;;;3.23;;
3259;SDS011;68938;48.150;14.004;2024-01-15T14:45:33;10.80;;;5.33;;
3259;SDS011;68938;48.150;14.004;2024-01-15T14:48:00;5.13;;;4.40;;
3259;SDS011;68938;48.150;14.004;2024-01-15T14:50:28;6.10;;;5.50;;
3259;SDS011;68938;48.150;14.004;2024-01-15T14:52:54;5.23;;;4.73;;
3259;SDS011;68938;48.150;14.004;2024-01-15T14:55:21;6.03;;;5.43;;
3259;SDS011;68938;48.150;14.004;2024-01-15T14:57:49;7.13;;;6.17;;
3259;SDS011;68938;48.150;14.004;2024-01-15T15:00:16;7.03;;;5.90;;